createdAt,value
2022-11-24T00:01:24.104Z,5.43
2022-11-24T00:04:15.123Z,5.48
2022-11-24T00:06:42.561Z,5.43
2022-11-24T00:09:10.928Z,5.47
2022-11-24T00:11:38.537Z,5.39
2022-11-24T00:14:06.722Z,5.44
2022-11-24T00:16:36.669Z,5.44
2022-11-24T00:19:09.083Z,5.40
2022-11-24T00:21:38.036Z,5.47
2022-11-24T00:24:05.879Z,5.50
2022-11-24T00:26:34.961Z,5.55
2022-11-24T00:29:05.806Z,5.54
2022-11-24T00:31:37.214Z,5.54
2022-11-24T00:34:11.839Z,5.53
2022-11-24T00:36:40.237Z,5.57
2022-11-24T00:39:12.821Z,5.55
2022-11-24T00:41:40.915Z,5.50
2022-11-24T00:44:08.997Z,5.56
2022-11-24T00:46:36.563Z,5.55
2022-11-24T00:49:05.070Z,5.56
2022-11-24T00:51:33.261Z,5.58
2022-11-24T00:54:01.365Z,5.56
2022-11-24T00:56:29.906Z,5.58
2022-11-24T00:58:57.866Z,5.59
2022-11-24T01:01:27.697Z,5.59
2022-11-24T01:03:55.824Z,5.57
2022-11-24T01:06:27.355Z,5.43
2022-11-24T01:08:57.634Z,5.58
2022-11-24T01:11:52.553Z,5.60
2022-11-24T01:14:21.802Z,5.59
2022-11-24T01:16:49.500Z,5.51
2022-11-24T01:19:16.999Z,5.57
2022-11-24T01:21:44.534Z,5.58
2022-11-24T01:24:12.707Z,5.59
2022-11-24T01:26:40.450Z,5.58
2022-11-24T01:29:08.229Z,5.55
2022-11-24T01:31:37.060Z,5.53
2022-11-24T01:34:04.584Z,5.55
2022-11-24T01:36:32.091Z,5.54
2022-11-24T01:38:59.987Z,5.53
2022-11-24T01:41:27.620Z,5.55
2022-11-24T01:43:56.524Z,5.54
2022-11-24T01:46:36.464Z,5.54
2022-11-24T01:49:24.581Z,5.56
2022-11-24T01:52:17.002Z,5.56
2022-11-24T01:54:53.373Z,5.59
2022-11-24T01:57:26.484Z,5.54
2022-11-24T01:59:58.364Z,5.61
2022-11-24T02:02:29.243Z,5.56
2022-11-24T02:05:02.337Z,5.58
2022-11-24T02:07:30.823Z,5.58
2022-11-24T02:10:03.584Z,5.54
2022-11-24T02:12:31.867Z,5.52
2022-11-24T02:14:59.433Z,5.59
2022-11-24T02:17:26.848Z,5.53
2022-11-24T02:20:01.928Z,5.56
2022-11-24T02:22:50.286Z,5.56
2022-11-24T02:25:47.213Z,5.59
2022-11-24T02:28:18.876Z,5.57
2022-11-24T02:30:46.893Z,5.56
2022-11-24T02:33:14.897Z,5.57
2022-11-24T02:35:42.895Z,5.57
2022-11-24T02:38:13.570Z,5.58
2022-11-24T02:40:46.324Z,5.58
2022-11-24T02:43:17.914Z,5.60
2022-11-24T02:45:45.287Z,5.57
2022-11-24T02:48:14.775Z,5.60
2022-11-24T02:50:42.580Z,5.57
2022-11-24T02:53:10.176Z,5.55
2022-11-24T02:55:37.668Z,5.56
2022-11-24T02:58:05.823Z,5.57
2022-11-24T03:00:33.238Z,5.57
2022-11-24T03:03:00.796Z,5.58
2022-11-24T03:05:28.502Z,5.58
2022-11-24T03:07:56.039Z,5.54
2022-11-24T03:10:24.432Z,5.63
2022-11-24T03:12:52.214Z,5.59
2022-11-24T03:15:19.662Z,5.60
2022-11-24T03:17:47.134Z,5.51
2022-11-24T03:20:14.889Z,5.58
2022-11-24T03:22:42.287Z,5.56
2022-11-24T03:25:10.024Z,5.60
2022-11-24T03:27:37.746Z,5.59
2022-11-24T03:30:05.683Z,5.60
2022-11-24T03:32:33.106Z,5.63
2022-11-24T03:35:00.823Z,5.66
2022-11-24T03:37:28.220Z,5.60
2022-11-24T03:39:55.660Z,5.66
2022-11-24T03:42:23.419Z,5.67
2022-11-24T03:44:50.788Z,5.66
2022-11-24T03:47:18.139Z,5.60
2022-11-24T03:49:45.815Z,5.61
2022-11-24T03:52:13.243Z,5.59
2022-11-24T03:54:40.635Z,5.61
2022-11-24T03:57:08.683Z,5.56
2022-11-24T03:59:36.074Z,5.52
2022-11-24T04:02:03.685Z,5.55
2022-11-24T04:04:31.585Z,5.55
2022-11-24T04:06:59.431Z,5.49
2022-11-24T04:09:27.327Z,5.43
2022-11-24T04:12:13.541Z,5.39
2022-11-24T04:14:41.095Z,5.37
2022-11-24T04:17:09.145Z,5.32
2022-11-24T04:19:36.494Z,5.36
2022-11-24T04:22:04.022Z,5.24
2022-11-24T04:24:31.879Z,5.29
2022-11-24T04:26:59.349Z,5.29
2022-11-24T04:29:26.828Z,5.30
2022-11-24T04:31:54.499Z,5.27
2022-11-24T04:34:21.903Z,5.25
2022-11-24T04:36:49.324Z,5.24
2022-11-24T04:39:23.158Z,5.29
2022-11-24T04:41:53.555Z,5.27
2022-11-24T04:44:21.457Z,5.22
2022-11-24T04:46:49.088Z,5.22
2022-11-24T04:49:16.790Z,5.21
2022-11-24T04:51:44.746Z,5.25
2022-11-24T04:54:13.578Z,5.28
2022-11-24T04:56:42.304Z,5.24
2022-11-24T04:59:15.967Z,5.22
2022-11-24T05:01:44.922Z,5.25
2022-11-24T05:04:14.762Z,5.22
2022-11-24T05:06:42.528Z,5.25
2022-11-24T05:09:15.443Z,5.26
2022-11-24T05:11:44.030Z,5.28
2022-11-24T05:14:11.523Z,5.29
2022-11-24T05:16:39.038Z,5.25
2022-11-24T05:19:06.750Z,5.18
2022-11-24T05:21:34.356Z,5.24
2022-11-24T05:24:01.851Z,5.19
2022-11-24T05:26:29.597Z,5.23
2022-11-24T05:28:57.112Z,5.23
2022-11-24T05:31:24.627Z,5.21
2022-11-24T05:33:52.460Z,5.21
2022-11-24T05:36:38.538Z,5.22
2022-11-24T05:39:06.848Z,5.23
2022-11-24T05:41:34.444Z,5.08
2022-11-24T05:44:01.860Z,5.15
2022-11-24T05:46:29.613Z,5.07
2022-11-24T05:48:57.133Z,5.07
2022-11-24T05:51:24.686Z,5.09
2022-11-24T05:53:52.546Z,5.08
2022-11-24T05:56:20.029Z,4.89
2022-11-24T05:58:47.619Z,4.97
2022-11-24T06:01:15.356Z,4.99
2022-11-24T06:03:44.374Z,5.04
2022-11-24T06:06:11.856Z,5.05
2022-11-24T06:08:39.320Z,4.99
2022-11-24T06:11:19.413Z,4.97
2022-11-24T06:13:48.704Z,5.02
2022-11-24T06:16:16.734Z,4.87
2022-11-24T06:18:44.350Z,5.01
2022-11-24T06:21:12.309Z,4.91
2022-11-24T06:23:40.614Z,4.88
2022-11-24T06:26:09.609Z,4.76
2022-11-24T06:28:37.114Z,4.91
2022-11-24T06:31:06.016Z,4.89
2022-11-24T06:33:35.380Z,4.92
2022-11-24T06:36:08.188Z,4.99
2022-11-24T06:38:36.795Z,4.97
2022-11-24T06:41:07.492Z,4.98
2022-11-24T06:43:35.079Z,5.02
2022-11-24T06:46:03.374Z,5.00
2022-11-24T06:48:31.791Z,5.05
2022-11-24T06:51:01.316Z,5.06
2022-11-24T06:53:38.354Z,5.05
2022-11-24T06:56:15.286Z,5.16
2022-11-24T06:58:46.428Z,5.21
2022-11-24T07:01:22.426Z,5.16
2022-11-24T07:03:51.707Z,5.23
2022-11-24T07:06:20.379Z,5.12
2022-11-24T07:08:48.392Z,5.25
2022-11-24T07:11:19.007Z,5.26
2022-11-24T07:13:47.524Z,5.28
2022-11-24T07:16:17.708Z,5.13
2022-11-24T07:18:47.632Z,5.25
2022-11-24T07:21:15.402Z,5.27
2022-11-24T07:23:43.366Z,5.29
2022-11-24T07:26:11.480Z,5.26
2022-11-24T07:28:39.027Z,5.32
2022-11-24T07:31:11.232Z,5.33
2022-11-24T07:33:39.621Z,5.32
2022-11-24T07:36:08.791Z,5.33
2022-11-24T07:38:36.921Z,5.33
2022-11-24T07:41:07.792Z,5.26
2022-11-24T07:43:36.545Z,5.36
2022-11-24T07:46:06.487Z,5.35
2022-11-24T07:48:34.843Z,5.28
2022-11-24T07:51:04.566Z,5.24
2022-11-24T07:53:33.400Z,5.26
2022-11-24T07:56:03.181Z,5.27
2022-11-24T07:58:33.483Z,5.26
2022-11-24T08:01:18.482Z,5.23
2022-11-24T08:03:47.074Z,5.10
2022-11-24T08:06:25.084Z,5.27
2022-11-24T08:08:55.186Z,5.29
2022-11-24T08:11:23.129Z,5.32
2022-11-24T08:13:50.705Z,5.21
2022-11-24T08:16:20.250Z,5.31
2022-11-24T08:18:53.569Z,5.38
2022-11-24T08:21:23.391Z,5.36
2022-11-24T08:23:55.589Z,5.41
2022-11-24T08:26:25.074Z,5.45
2022-11-24T08:28:58.166Z,5.55
2022-11-24T08:31:32.697Z,5.56
2022-11-24T08:34:01.852Z,5.62
2022-11-24T08:36:29.908Z,5.59
2022-11-24T08:38:58.875Z,5.53
2022-11-24T08:41:27.136Z,5.59
2022-11-24T08:43:55.513Z,5.67
2022-11-24T08:46:23.985Z,5.60
2022-11-24T08:48:53.562Z,5.64
2022-11-24T08:51:24.347Z,5.64
2022-11-24T08:53:59.837Z,5.70
2022-11-24T08:56:29.964Z,5.73
2022-11-24T08:58:58.793Z,5.78
2022-11-24T09:01:30.584Z,5.53
2022-11-24T09:03:59.452Z,5.56
2022-11-24T09:06:31.009Z,5.73
2022-11-24T09:08:59.899Z,5.84
2022-11-24T09:11:27.615Z,5.88
2022-11-24T09:13:55.711Z,5.94
2022-11-24T09:16:26.855Z,6.01
2022-11-24T09:19:03.651Z,5.95
2022-11-24T09:21:39.162Z,6.03
2022-11-24T09:24:07.759Z,5.90
2022-11-24T09:26:43.022Z,6.04
2022-11-24T09:29:13.894Z,6.06
2022-11-24T09:31:41.613Z,6.07
2022-11-24T09:34:13.116Z,6.16
2022-11-24T09:36:41.067Z,6.32
2022-11-24T09:39:10.172Z,6.34
2022-11-24T09:41:43.811Z,6.40
2022-11-24T09:44:14.640Z,6.29
2022-11-24T09:47:03.694Z,6.28
2022-11-24T09:49:51.596Z,6.35
2022-11-24T09:52:33.213Z,6.26
2022-11-24T09:55:05.137Z,6.42
2022-11-24T09:57:38.662Z,6.41
2022-11-24T10:00:18.837Z,6.38
2022-11-24T10:02:49.202Z,6.49
2022-11-24T10:05:16.930Z,6.45
2022-11-24T10:08:07.702Z,6.43
2022-11-24T10:10:51.012Z,6.33
2022-11-24T10:13:37.200Z,6.35
2022-11-24T10:16:26.903Z,6.47
2022-11-24T10:19:37.897Z,6.52
2022-11-24T10:22:31.235Z,6.50
2022-11-24T10:25:16.406Z,6.45
2022-11-24T10:27:46.851Z,6.50
2022-11-24T10:30:18.222Z,6.46
2022-11-24T10:32:54.203Z,6.39
2022-11-24T10:35:28.126Z,6.41
2022-11-24T10:38:07.069Z,6.55
2022-11-24T10:43:28.475Z,6.63
2022-11-24T10:46:09.854Z,6.55
2022-11-24T10:48:43.509Z,6.64
2022-11-24T10:51:29.101Z,6.60
2022-11-24T10:54:07.181Z,6.59
2022-11-24T10:56:42.492Z,6.64
2022-11-24T10:59:25.465Z,6.45
2022-11-24T11:01:53.346Z,6.48
2022-11-24T11:04:41.392Z,6.53
2022-11-24T11:07:10.283Z,6.46
2022-11-24T11:09:38.208Z,6.59
2022-11-24T11:12:36.269Z,6.60
2022-11-24T11:15:21.514Z,6.46
2022-11-24T11:17:52.422Z,6.54
2022-11-24T11:20:42.917Z,6.55
2022-11-24T11:23:21.456Z,6.57
2022-11-24T11:25:49.190Z,6.51
2022-11-24T11:28:29.116Z,6.65
2022-11-24T11:31:22.410Z,6.64
2022-11-24T11:34:05.508Z,6.74
2022-11-24T11:36:56.321Z,6.76
2022-11-24T11:39:29.892Z,6.75
2022-11-24T11:42:37.871Z,6.65
2022-11-24T11:45:21.065Z,6.50
2022-11-24T11:48:01.068Z,6.55
2022-11-24T11:53:56.830Z,6.65
2022-11-24T11:56:31.216Z,6.67
2022-11-24T11:59:18.480Z,6.64
2022-11-24T12:01:57.809Z,6.72
2022-11-24T12:04:42.579Z,6.65
2022-11-24T12:07:42.409Z,6.75
2022-11-24T12:10:14.354Z,6.66
2022-11-24T12:13:10.212Z,6.77
2022-11-24T12:15:43.118Z,6.69
2022-11-24T12:21:31.895Z,6.83
2022-11-24T12:24:22.213Z,6.72
2022-11-24T12:26:58.177Z,6.92
2022-11-24T12:29:34.649Z,7.00
2022-11-24T12:32:36.664Z,7.04
2022-11-24T12:35:07.112Z,7.05
2022-11-24T12:37:56.948Z,7.10
2022-11-24T12:40:46.619Z,7.04
2022-11-24T12:43:36.893Z,7.10
2022-11-24T12:46:29.264Z,7.04
2022-11-24T12:49:19.160Z,7.14
2022-11-24T12:51:58.097Z,7.25
2022-11-24T12:54:33.764Z,7.18
2022-11-24T12:57:11.163Z,7.19
2022-11-24T12:59:46.209Z,7.31
2022-11-24T13:02:52.917Z,7.39
2022-11-24T13:05:46.992Z,7.42
2022-11-24T13:08:16.107Z,7.49
2022-11-24T13:10:59.320Z,7.57
2022-11-24T13:13:48.973Z,7.50
2022-11-24T13:19:15.071Z,7.53
2022-11-24T13:21:43.008Z,7.62
2022-11-24T13:26:51.340Z,7.53
2022-11-24T13:29:25.449Z,7.58
2022-11-24T13:32:23.065Z,7.66
2022-11-24T13:34:54.904Z,7.63
2022-11-24T13:37:31.784Z,7.65
2022-11-24T13:40:23.775Z,7.50
2022-11-24T13:42:57.748Z,7.65
2022-11-24T13:45:54.560Z,7.53
2022-11-24T13:48:28.193Z,7.44
2022-11-24T13:50:58.589Z,7.41
2022-11-24T13:53:29.318Z,7.45
2022-11-24T13:56:03.147Z,7.48
2022-11-24T13:58:40.448Z,7.51
2022-11-24T14:01:29.435Z,7.55
2022-11-24T14:04:28.631Z,7.51
2022-11-24T14:06:53.871Z,7.57
2022-11-24T14:09:33.928Z,7.62
2022-11-24T14:12:12.132Z,7.67
2022-11-24T14:14:41.479Z,7.69
2022-11-24T14:17:18.716Z,7.65
2022-11-24T14:19:49.371Z,7.65
2022-11-24T14:22:40.039Z,7.63
2022-11-24T14:25:26.598Z,7.71
2022-11-24T14:27:54.299Z,7.60
2022-11-24T14:30:24.315Z,7.60
2022-11-24T14:32:59.669Z,7.66
2022-11-24T14:35:43.224Z,7.53
2022-11-24T14:38:12.437Z,7.51
2022-11-24T14:40:47.102Z,7.55
2022-11-24T14:43:21.504Z,7.50
2022-11-24T14:45:55.837Z,7.50
2022-11-24T14:48:36.971Z,7.49
2022-11-24T14:51:20.071Z,7.45
2022-11-24T14:53:52.391Z,7.41
2022-11-24T14:56:32.903Z,7.36
2022-11-24T14:59:00.959Z,7.39
2022-11-24T15:01:35.040Z,7.30
2022-11-24T15:04:32.450Z,7.31
2022-11-24T15:07:25.808Z,7.30
2022-11-24T15:09:58.189Z,7.20
2022-11-24T15:12:40.512Z,7.15
2022-11-24T15:15:13.740Z,7.13
2022-11-24T15:17:58.679Z,7.01
2022-11-24T15:20:37.966Z,7.06
2022-11-24T15:23:23.830Z,6.95
2022-11-24T15:25:53.974Z,6.95
2022-11-24T15:28:28.116Z,6.97
2022-11-24T15:31:04.595Z,6.95
2022-11-24T15:33:32.603Z,6.94
2022-11-24T15:36:00.099Z,6.89
2022-11-24T15:38:27.788Z,6.88
2022-11-24T15:40:58.937Z,6.88
2022-11-24T15:43:34.246Z,6.83
2022-11-24T15:46:03.451Z,6.92
2022-11-24T15:48:31.389Z,6.87
2022-11-24T15:51:01.638Z,6.88
2022-11-24T15:53:29.548Z,6.88
2022-11-24T15:55:58.472Z,6.93
2022-11-24T15:58:26.051Z,6.94
2022-11-24T16:00:54.021Z,6.91
2022-11-24T16:03:46.352Z,6.87
2022-11-24T16:06:22.176Z,6.90
2022-11-24T16:08:52.695Z,6.85
2022-11-24T16:11:21.139Z,6.80
2022-11-24T16:13:52.914Z,6.69
2022-11-24T16:16:23.211Z,6.66
2022-11-24T16:18:50.944Z,6.66
2022-11-24T16:21:18.506Z,6.55
2022-11-24T16:23:46.667Z,6.55
2022-11-24T16:26:14.450Z,6.51
2022-11-24T16:28:42.902Z,6.38
2022-11-24T16:31:12.643Z,6.34
2022-11-24T16:33:40.992Z,6.35
2022-11-24T16:36:08.886Z,6.35
2022-11-24T16:38:36.820Z,6.35
2022-11-24T16:41:04.340Z,6.35
2022-11-24T16:43:32.127Z,6.32
2022-11-24T16:46:21.647Z,6.27
2022-11-24T16:48:51.914Z,6.22
2022-11-24T16:51:21.695Z,6.23
2022-11-24T16:53:57.607Z,6.15
2022-11-24T16:56:26.428Z,6.13
2022-11-24T16:58:54.898Z,6.08
2022-11-24T17:01:23.269Z,6.02
2022-11-24T17:03:50.969Z,5.99
2022-11-24T17:06:18.744Z,5.90
2022-11-24T17:08:46.921Z,5.87
2022-11-24T17:11:17.479Z,5.81
2022-11-24T17:13:47.126Z,5.81
2022-11-24T17:16:17.576Z,5.74
2022-11-24T17:18:45.877Z,5.66
2022-11-24T17:21:21.796Z,5.58
2022-11-24T17:23:57.784Z,5.55
2022-11-24T17:26:25.645Z,5.56
2022-11-24T17:28:54.350Z,5.56
2022-11-24T17:31:30.751Z,5.52
2022-11-24T17:34:00.258Z,5.49
2022-11-24T17:36:30.420Z,5.46
2022-11-24T17:39:07.120Z,5.40
2022-11-24T17:41:34.712Z,5.37
2022-11-24T17:44:02.833Z,5.31
2022-11-24T17:46:31.101Z,5.27
2022-11-24T17:48:59.008Z,5.22
2022-11-24T17:51:27.236Z,5.18
2022-11-24T17:53:57.314Z,5.05
2022-11-24T17:56:26.643Z,5.10
2022-11-24T17:58:59.628Z,5.10
2022-11-24T18:01:31.570Z,5.01
2022-11-24T18:03:59.872Z,5.00
2022-11-24T18:06:28.799Z,4.97
2022-11-24T18:08:57.657Z,4.89
2022-11-24T18:11:32.376Z,4.93
2022-11-24T18:14:03.543Z,4.94
2022-11-24T18:16:34.169Z,4.83
2022-11-24T18:19:08.873Z,4.92
2022-11-24T18:21:40.006Z,4.82
2022-11-24T18:24:08.997Z,4.90
2022-11-24T18:26:37.726Z,4.96
2022-11-24T18:29:05.573Z,4.91
2022-11-24T18:31:35.657Z,4.95
2022-11-24T18:34:05.840Z,4.98
2022-11-24T18:36:34.781Z,5.03
2022-11-24T18:39:07.395Z,4.90
2022-11-24T18:41:35.500Z,4.99
2022-11-24T18:44:07.722Z,4.89
2022-11-24T18:46:37.393Z,4.88
2022-11-24T18:49:05.794Z,4.94
2022-11-24T18:51:33.608Z,4.82
2022-11-24T18:54:03.076Z,4.83
2022-11-24T18:56:31.525Z,4.76
2022-11-24T18:58:59.629Z,4.72
2022-11-24T19:01:29.007Z,4.73
2022-11-24T19:04:00.526Z,4.77
2022-11-24T19:06:32.773Z,4.69
2022-11-24T19:09:03.310Z,4.66
2022-11-24T19:11:35.339Z,4.66
2022-11-24T19:14:04.632Z,4.62
2022-11-24T19:16:33.386Z,4.55
2022-11-24T19:19:02.735Z,4.54
2022-11-24T19:21:32.823Z,4.51
2022-11-24T19:24:05.285Z,4.54
2022-11-24T19:26:37.515Z,4.51
2022-11-24T19:29:06.965Z,4.48
2022-11-24T19:31:38.352Z,4.50
2022-11-24T19:34:08.063Z,4.46
2022-11-24T19:36:36.266Z,4.44
2022-11-24T19:39:05.266Z,4.38
2022-11-24T19:41:34.245Z,4.41
2022-11-24T19:44:02.359Z,4.46
2022-11-24T19:46:30.234Z,4.47
2022-11-24T19:49:02.345Z,4.44
2022-11-24T19:51:33.661Z,4.40
2022-11-24T19:54:02.750Z,4.47
2022-11-24T19:56:34.184Z,4.49
2022-11-24T19:59:05.459Z,4.46
2022-11-24T20:01:40.258Z,4.45
2022-11-24T20:04:11.614Z,4.48
2022-11-24T20:06:41.815Z,4.29
2022-11-24T20:09:12.321Z,4.46
2022-11-24T20:11:40.391Z,4.48
2022-11-24T20:14:11.719Z,4.48
2022-11-24T20:16:40.590Z,4.51
2022-11-24T20:19:12.122Z,4.51
2022-11-24T20:21:41.548Z,4.49
2022-11-24T20:24:18.611Z,4.53
2022-11-24T20:26:52.039Z,4.53
2022-11-24T20:29:20.111Z,4.57
2022-11-24T20:31:53.098Z,4.56
2022-11-24T20:34:22.221Z,4.49
2022-11-24T20:36:53.267Z,4.54
2022-11-24T20:39:25.494Z,4.54
2022-11-24T20:41:55.456Z,4.54
2022-11-24T20:44:24.916Z,4.56
2022-11-24T20:46:55.409Z,4.57
2022-11-24T20:49:23.359Z,4.60
2022-11-24T20:51:54.576Z,4.62
2022-11-24T20:54:22.855Z,4.54
2022-11-24T20:56:50.771Z,4.57
2022-11-24T20:59:21.585Z,4.48
2022-11-24T21:01:51.654Z,4.57
2022-11-24T21:04:22.644Z,4.58
2022-11-24T21:06:50.816Z,4.63
2022-11-24T21:09:19.080Z,4.63
2022-11-24T21:11:46.802Z,4.70
2022-11-24T21:14:14.791Z,4.73
2022-11-24T21:16:43.097Z,4.70
2022-11-24T21:19:13.893Z,4.63
2022-11-24T21:21:42.764Z,4.59
2022-11-24T21:24:13.496Z,4.57
2022-11-24T21:26:42.519Z,4.60
2022-11-24T21:29:15.063Z,4.66
2022-11-24T21:31:42.719Z,4.65
2022-11-24T21:34:15.240Z,4.65
2022-11-24T21:36:45.158Z,4.69
2022-11-24T21:39:14.416Z,4.66
2022-11-24T21:41:43.270Z,4.65
2022-11-24T21:44:12.913Z,4.60
2022-11-24T21:46:47.860Z,4.59
2022-11-24T21:49:16.913Z,4.59
2022-11-24T21:51:44.757Z,4.61
2022-11-24T21:54:12.142Z,4.58
2022-11-24T21:56:39.605Z,4.57
2022-11-24T21:59:07.456Z,4.45
2022-11-24T22:01:34.996Z,4.48
2022-11-24T22:04:02.859Z,4.49
2022-11-24T22:06:30.320Z,4.50
2022-11-24T22:08:57.776Z,4.50
2022-11-24T22:11:25.884Z,4.40
2022-11-24T22:13:53.792Z,4.45
2022-11-24T22:16:23.391Z,4.44
2022-11-24T22:18:51.632Z,4.45
2022-11-24T22:21:25.596Z,4.47
2022-11-24T22:23:53.433Z,4.31
2022-11-24T22:26:22.785Z,4.34
2022-11-24T22:28:50.912Z,4.36
2022-11-24T22:31:21.679Z,4.32
2022-11-24T22:33:49.996Z,4.30
2022-11-24T22:36:20.920Z,4.28
2022-11-24T22:38:54.245Z,4.33
2022-11-24T22:41:22.080Z,4.32
2022-11-24T22:43:50.576Z,4.34
2022-11-24T22:46:23.707Z,4.27
2022-11-24T22:48:53.002Z,4.26
2022-11-24T22:51:24.568Z,4.19
2022-11-24T22:53:57.682Z,4.23
2022-11-24T22:56:27.868Z,4.15
2022-11-24T22:58:55.828Z,4.13
2022-11-24T23:01:24.844Z,4.09
2022-11-24T23:03:56.247Z,4.05
2022-11-24T23:06:26.652Z,4.06
2022-11-24T23:08:55.216Z,4.03
2022-11-24T23:11:31.682Z,4.06
2022-11-24T23:14:03.497Z,3.92
2022-11-24T23:16:31.190Z,4.02
2022-11-24T23:18:58.783Z,4.00
2022-11-24T23:21:29.544Z,3.97
2022-11-24T23:23:59.796Z,3.96
2022-11-24T23:26:30.691Z,3.95
2022-11-24T23:28:58.356Z,3.92
2022-11-24T23:31:28.765Z,3.87
2022-11-24T23:34:02.011Z,3.89
2022-11-24T23:36:30.840Z,3.87
2022-11-24T23:39:03.684Z,3.81
2022-11-24T23:41:31.878Z,3.84
2022-11-24T23:44:00.220Z,3.81
2022-11-24T23:46:28.236Z,3.79
2022-11-24T23:48:56.343Z,3.77
2022-11-24T23:51:27.252Z,3.68
2022-11-24T23:53:55.209Z,3.66
2022-11-24T23:56:25.119Z,3.75
2022-11-24T23:58:52.920Z,3.62
